sensor_id;sensor_type;location;lat;lon;timestamp;pressure;altitude;pressure_sealevel;temperature;humidity
27358;BME280;14831;50.474;7.616;2024-02-21T00:02:47;98750;;;5.0;94.4
27358;BME280;14831;50.474;7.616;2024-02-21T00:07:47;98740;;;5.0;94.3
27358;BME280;14831;50.474;7.616;2024-02-21T00:12:47;98730;;;5.0;93.7
27358;BME280;14831;50.474;7.616;2024-02-21T00:17:47;98750;;;5.0;94.0
27358;BME280;14831;50.474;7.616;2024-02-21T00:22:47;98740;;;5.0;93.5
27358;BME280;14831;50.474;7.616;2024-02-21T00:27:47;98750;;;5.0;93.7
27358;BME280;14831;50.474;7.616;2024-02-21T00:32:47;98730;;;5.0;93.3
27358;BME280;14831;50.474;7.616;2024-02-21T00:37:47;98740;;;5.0;93.6
27358;BME280;14831;50.474;7.616;2024-02-21T00:42:47;98730;;;5.0;93.6
27358;BME280;14831;50.474;7.616;2024-02-21T00:47:47;98730;;;5.0;93.4
27358;BME280;14831;50.474;7.616;2024-02-21T00:52:47;98690;;;4.9;93.6
27358;BME280;14831;50.474;7.616;2024-02-21T00:57:47;98690;;;4.9;93.8
27358;BME280;14831;50.474;7.616;2024-02-21T01:02:47;98700;;;4.9;93.8
27358;BME280;14831;50.474;7.616;2024-02-21T01:07:47;98700;;;4.9;93.9
27358;BME280;14831;50.474;7.616;2024-02-21T01:12:47;98700;;;4.9;93.8
27358;BME280;14831;50.474;7.616;2024-02-21T01:17:47;98700;;;4.9;93.7
27358;BME280;14831;50.474;7.616;2024-02-21T01:22:47;98690;;;4.9;93.6
27358;BME280;14831;50.474;7.616;2024-02-21T01:27:47;98680;;;4.9;93.6
27358;BME280;14831;50.474;7.616;2024-02-21T01:32:47;98680;;;4.9;93.7
27358;BME280;14831;50.474;7.616;2024-02-21T01:37:47;98680;;;5.0;93.2
27358;BME280;14831;50.474;7.616;2024-02-21T01:42:47;98680;;;4.9;93.2
27358;BME280;14831;50.474;7.616;2024-02-21T01:47:47;98680;;;4.9;93.6
27358;BME280;14831;50.474;7.616;2024-02-21T01:52:47;98650;;;4.9;93.3
27358;BME280;14831;50.474;7.616;2024-02-21T01:57:47;98660;;;4.9;93.1
27358;BME280;14831;50.474;7.616;2024-02-21T02:02:47;98640;;;4.9;92.9
27358;BME280;14831;50.474;7.616;2024-02-21T02:07:47;98630;;;4.9;93.3
27358;BME280;14831;50.474;7.616;2024-02-21T02:12:47;98630;;;4.9;93.3
27358;BME280;14831;50.474;7.616;2024-02-21T02:17:47;98630;;;4.9;93.7
27358;BME280;14831;50.474;7.616;2024-02-21T02:22:47;98640;;;4.9;93.5
27358;BME280;14831;50.474;7.616;2024-02-21T02:27:47;98640;;;4.9;93.5
27358;BME280;14831;50.474;7.616;2024-02-21T02:32:47;98620;;;4.9;93.1
27358;BME280;14831;50.474;7.616;2024-02-21T02:37:47;98610;;;4.9;93.0
27358;BME280;14831;50.474;7.616;2024-02-21T02:42:48;98600;;;4.9;93.1
27358;BME280;14831;50.474;7.616;2024-02-21T02:47:48;98590;;;4.9;93.3
27358;BME280;14831;50.474;7.616;2024-02-21T02:52:47;98560;;;4.9;93.1
27358;BME280;14831;50.474;7.616;2024-02-21T02:57:47;98550;;;4.8;93.4
27358;BME280;14831;50.474;7.616;2024-02-21T03:02:48;98550;;;4.8;93.8
27358;BME280;14831;50.474;7.616;2024-02-21T03:07:47;98540;;;4.8;93.9
27358;BME280;14831;50.474;7.616;2024-02-21T03:12:47;98530;;;4.9;93.8
27358;BME280;14831;50.474;7.616;2024-02-21T03:17:47;98540;;;4.9;94.0
27358;BME280;14831;50.474;7.616;2024-02-21T03:22:47;98550;;;4.9;94.1
27358;BME280;14831;50.474;7.616;2024-02-21T03:27:47;98550;;;4.9;93.7
27358;BME280;14831;50.474;7.616;2024-02-21T03:32:47;98550;;;5.0;93.7
27358;BME280;14831;50.474;7.616;2024-02-21T03:37:47;98550;;;5.0;93.5
27358;BME280;14831;50.474;7.616;2024-02-21T03:42:47;98550;;;5.0;93.5
27358;BME280;14831;50.474;7.616;2024-02-21T03:47:47;98540;;;5.0;93.2
27358;BME280;14831;50.474;7.616;2024-02-21T03:52:47;98530;;;5.0;93.1
27358;BME280;14831;50.474;7.616;2024-02-21T03:57:47;98520;;;5.0;93.2
27358;BME280;14831;50.474;7.616;2024-02-21T04:02:47;98510;;;5.0;92.7
27358;BME280;14831;50.474;7.616;2024-02-21T04:07:47;98500;;;5.0;92.8
27358;BME280;14831;50.474;7.616;2024-02-21T04:12:47;98490;;;5.0;92.7
27358;BME280;14831;50.474;7.616;2024-02-21T04:17:47;98490;;;5.0;92.6
27358;BME280;14831;50.474;7.616;2024-02-21T04:22:47;98470;;;5.0;92.5
27358;BME280;14831;50.474;7.616;2024-02-21T04:27:47;98460;;;5.0;92.4
27358;BME280;14831;50.474;7.616;2024-02-21T04:32:47;98460;;;5.0;92.1
27358;BME280;14831;50.474;7.616;2024-02-21T04:37:47;98460;;;5.0;92.1
27358;BME280;14831;50.474;7.616;2024-02-21T04:42:47;98450;;;5.0;92.2
27358;BME280;14831;50.474;7.616;2024-02-21T04:47:47;98460;;;5.0;92.4
27358;BME280;14831;50.474;7.616;2024-02-21T04:52:47;98470;;;5.0;92.3
27358;BME280;14831;50.474;7.616;2024-02-21T04:57:47;98470;;;5.0;92.2
27358;BME280;14831;50.474;7.616;2024-02-21T05:02:47;98480;;;5.0;92.1
27358;BME280;14831;50.474;7.616;2024-02-21T05:07:47;98480;;;5.0;92.0
27358;BME280;14831;50.474;7.616;2024-02-21T05:12:47;98460;;;5.0;91.7
27358;BME280;14831;50.474;7.616;2024-02-21T05:17:47;98460;;;5.0;91.1
27358;BME280;14831;50.474;7.616;2024-02-21T05:22:47;98460;;;5.0;91.1
27358;BME280;14831;50.474;7.616;2024-02-21T05:27:47;98450;;;5.0;91.1
27358;BME280;14831;50.474;7.616;2024-02-21T05:32:47;98430;;;4.9;90.9
27358;BME280;14831;50.474;7.616;2024-02-21T05:37:47;98440;;;4.9;90.6
27358;BME280;14831;50.474;7.616;2024-02-21T05:42:47;98430;;;4.9;90.5
27358;BME280;14831;50.474;7.616;2024-02-21T05:47:47;98430;;;4.9;89.8
27358;BME280;14831;50.474;7.616;2024-02-21T05:52:47;98440;;;4.9;89.7
27358;BME280;14831;50.474;7.616;2024-02-21T05:57:47;98440;;;4.9;89.5
27358;BME280;14831;50.474;7.616;2024-02-21T06:02:47;98430;;;4.9;89.3
27358;BME280;14831;50.474;7.616;2024-02-21T06:07:47;98420;;;4.8;89.5
27358;BME280;14831;50.474;7.616;2024-02-21T06:12:47;98400;;;4.8;89.5
27358;BME280;14831;50.474;7.616;2024-02-21T06:17:47;98390;;;4.8;89.6
27358;BME280;14831;50.474;7.616;2024-02-21T06:22:47;98380;;;4.8;89.7
27358;BME280;14831;50.474;7.616;2024-02-21T06:27:47;98390;;;4.8;89.4
27358;BME280;14831;50.474;7.616;2024-02-21T06:32:47;98400;;;4.7;89.6
27358;BME280;14831;50.474;7.616;2024-02-21T06:37:47;98400;;;4.8;89.4
27358;BME280;14831;50.474;7.616;2024-02-21T06:42:47;98410;;;4.7;89.6
27358;BME280;14831;50.474;7.616;2024-02-21T06:47:47;98400;;;4.7;89.5
27358;BME280;14831;50.474;7.616;2024-02-21T06:52:47;98400;;;4.7;89.6
27358;BME280;14831;50.474;7.616;2024-02-21T06:57:47;98400;;;4.7;90.1
27358;BME280;14831;50.474;7.616;2024-02-21T07:02:47;98390;;;4.7;90.3
27358;BME280;14831;50.474;7.616;2024-02-21T07:07:47;98400;;;4.7;90.6
27358;BME280;14831;50.474;7.616;2024-02-21T07:12:47;98410;;;4.7;90.5
27358;BME280;14831;50.474;7.616;2024-02-21T07:17:47;98410;;;4.8;90.6
27358;BME280;14831;50.474;7.616;2024-02-21T07:22:47;98410;;;4.7;90.5
27358;BME280;14831;50.474;7.616;2024-02-21T07:27:47;98400;;;4.7;89.1
27358;BME280;14831;50.474;7.616;2024-02-21T07:32:48;98400;;;4.8;88.7
27358;BME280;14831;50.474;7.616;2024-02-21T07:37:47;98390;;;4.8;88.0
27358;BME280;14831;50.474;7.616;2024-02-21T07:42:47;98390;;;4.8;88.1
27358;BME280;14831;50.474;7.616;2024-02-21T07:47:47;98390;;;4.8;88.2
27358;BME280;14831;50.474;7.616;2024-02-21T07:52:47;98380;;;4.8;88.1
27358;BME280;14831;50.474;7.616;2024-02-21T07:57:47;98360;;;4.8;88.0
27358;BME280;14831;50.474;7.616;2024-02-21T08:02:48;98360;;;4.9;88.2
27358;BME280;14831;50.474;7.616;2024-02-21T08:07:48;98350;;;4.9;87.6
27358;BME280;14831;50.474;7.616;2024-02-21T08:12:47;98350;;;4.9;87.5
27358;BME280;14831;50.474;7.616;2024-02-21T08:17:47;98360;;;4.9;87.5
27358;BME280;14831;50.474;7.616;2024-02-21T08:22:47;98350;;;4.9;87.9
27358;BME280;14831;50.474;7.616;2024-02-21T08:27:47;98350;;;4.9;87.5
27358;BME280;14831;50.474;7.616;2024-02-21T08:32:47;98340;;;5.0;87.2
27358;BME280;14831;50.474;7.616;2024-02-21T08:37:47;98330;;;5.1;87.2
27358;BME280;14831;50.474;7.616;2024-02-21T08:42:47;98320;;;5.1;87.2
27358;BME280;14831;50.474;7.616;2024-02-21T08:47:47;98310;;;5.2;86.5
27358;BME280;14831;50.474;7.616;2024-02-21T08:52:47;98310;;;5.2;86.4
27358;BME280;14831;50.474;7.616;2024-02-21T08:57:47;98290;;;5.3;86.5
27358;BME280;14831;50.474;7.616;2024-02-21T09:02:47;98280;;;5.4;86.5
27358;BME280;14831;50.474;7.616;2024-02-21T09:07:47;98270;;;5.5;85.7
27358;BME280;14831;50.474;7.616;2024-02-21T09:12:47;98270;;;5.5;85.1
27358;BME280;14831;50.474;7.616;2024-02-21T09:17:47;98260;;;5.6;85.7
27358;BME280;14831;50.474;7.616;2024-02-21T09:22:47;98260;;;5.7;85.6
27358;BME280;14831;50.474;7.616;2024-02-21T09:27:47;98250;;;5.7;85.1
27358;BME280;14831;50.474;7.616;2024-02-21T09:32:47;98240;;;5.9;84.4
27358;BME280;14831;50.474;7.616;2024-02-21T09:37:47;98230;;;5.9;83.4
27358;BME280;14831;50.474;7.616;2024-02-21T09:42:48;98230;;;6.0;83.0
27358;BME280;14831;50.474;7.616;2024-02-21T09:47:56;98230;;;6.1;82.1
27358;BME280;14831;50.474;7.616;2024-02-21T09:52:47;98220;;;6.0;82.2
27358;BME280;14831;50.474;7.616;2024-02-21T09:57:47;98210;;;6.1;81.6
27358;BME280;14831;50.474;7.616;2024-02-21T10:02:47;98210;;;6.0;82.2
27358;BME280;14831;50.474;7.616;2024-02-21T10:07:47;98210;;;6.0;82.0
27358;BME280;14831;50.474;7.616;2024-02-21T10:12:48;98200;;;6.0;81.1
27358;BME280;14831;50.474;7.616;2024-02-21T10:17:47;98190;;;6.1;81.6
27358;BME280;14831;50.474;7.616;2024-02-21T10:22:47;98180;;;6.2;81.6
27358;BME280;14831;50.474;7.616;2024-02-21T10:27:47;98170;;;6.1;80.2
27358;BME280;14831;50.474;7.616;2024-02-21T10:32:49;98180;;;6.2;80.6
27358;BME280;14831;50.474;7.616;2024-02-21T10:37:47;98160;;;6.3;79.5
27358;BME280;14831;50.474;7.616;2024-02-21T10:42:47;98170;;;6.2;79.4
27358;BME280;14831;50.474;7.616;2024-02-21T10:47:48;98150;;;6.4;79.5
27358;BME280;14831;50.474;7.616;2024-02-21T10:52:48;98150;;;6.5;79.2
27358;BME280;14831;50.474;7.616;2024-02-21T10:57:47;98130;;;6.4;78.6
27358;BME280;14831;50.474;7.616;2024-02-21T11:02:47;98140;;;6.5;79.1
27358;BME280;14831;50.474;7.616;2024-02-21T11:07:47;98140;;;6.4;78.4
27358;BME280;14831;50.474;7.616;2024-02-21T11:12:47;98140;;;6.5;78.3
27358;BME280;14831;50.474;7.616;2024-02-21T11:17:53;98130;;;6.5;78.0
27358;BME280;14831;50.474;7.616;2024-02-21T11:22:47;98120;;;6.7;78.3
27358;BME280;14831;50.474;7.616;2024-02-21T11:27:47;98110;;;6.7;78.6
27358;BME280;14831;50.474;7.616;2024-02-21T11:32:47;98100;;;6.7;78.0
27358;BME280;14831;50.474;7.616;2024-02-21T11:37:47;98090;;;6.8;78.4
27358;BME280;14831;50.474;7.616;2024-02-21T11:42:47;98080;;;6.8;78.1
27358;BME280;14831;50.474;7.616;2024-02-21T11:47:47;98070;;;7.0;77.9
27358;BME280;14831;50.474;7.616;2024-02-21T11:52:48;98050;;;7.0;77.2
27358;BME280;14831;50.474;7.616;2024-02-21T11:57:47;98040;;;7.0;77.1
27358;BME280;14831;50.474;7.616;2024-02-21T12:02:47;98030;;;7.0;76.8
27358;BME280;14831;50.474;7.616;2024-02-21T12:07:47;97990;;;7.1;77.2
27358;BME280;14831;50.474;7.616;2024-02-21T12:12:47;97980;;;7.2;77.9
27358;BME280;14831;50.474;7.616;2024-02-21T12:17:47;97970;;;7.2;77.2
27358;BME280;14831;50.474;7.616;2024-02-21T12:22:49;97970;;;7.1;77.2
27358;BME280;14831;50.474;7.616;2024-02-21T12:27:47;97960;;;7.1;76.7
27358;BME280;14831;50.474;7.616;2024-02-21T12:32:47;97960;;;7.2;76.9
27358;BME280;14831;50.474;7.616;2024-02-21T12:37:47;97940;;;7.2;76.9
27358;BME280;14831;50.474;7.616;2024-02-21T12:42:47;97930;;;7.1;75.9
27358;BME280;14831;50.474;7.616;2024-02-21T12:47:48;97920;;;7.2;75.6
27358;BME280;14831;50.474;7.616;2024-02-21T12:52:47;97910;;;7.1;75.4
27358;BME280;14831;50.474;7.616;2024-02-21T12:57:47;97890;;;7.1;75.8
27358;BME280;14831;50.474;7.616;2024-02-21T13:02:47;97870;;;7.2;74.5
27358;BME280;14831;50.474;7.616;2024-02-21T13:07:47;97870;;;7.2;74.5
27358;BME280;14831;50.474;7.616;2024-02-21T13:12:47;97870;;;7.4;74.5
27358;BME280;14831;50.474;7.616;2024-02-21T13:17:47;97850;;;7.5;73.5
27358;BME280;14831;50.474;7.616;2024-02-21T13:22:47;97860;;;7.5;72.9
27358;BME280;14831;50.474;7.616;2024-02-21T13:27:47;97840;;;7.5;72.9
27358;BME280;14831;50.474;7.616;2024-02-21T13:32:47;97830;;;7.6;72.8
27358;BME280;14831;50.474;7.616;2024-02-21T13:37:47;97830;;;7.7;71.8
27358;BME280;14831;50.474;7.616;2024-02-21T13:42:47;97780;;;7.7;70.8
27358;BME280;14831;50.474;7.616;2024-02-21T13:47:48;97790;;;7.7;70.5
27358;BME280;14831;50.474;7.616;2024-02-21T13:52:47;97760;;;7.7;70.6
27358;BME280;14831;50.474;7.616;2024-02-21T13:57:47;97730;;;7.8;69.3
27358;BME280;14831;50.474;7.616;2024-02-21T14:02:47;97720;;;7.9;68.4
27358;BME280;14831;50.474;7.616;2024-02-21T14:07:47;97690;;;7.9;67.8
27358;BME280;14831;50.474;7.616;2024-02-21T14:12:47;97700;;;7.9;68.6
27358;BME280;14831;50.474;7.616;2024-02-21T14:17:47;97680;;;8.1;68.2
27358;BME280;14831;50.474;7.616;2024-02-21T14:22:47;97690;;;8.1;67.3
27358;BME280;14831;50.474;7.616;2024-02-21T14:27:47;97680;;;8.0;67.7
27358;BME280;14831;50.474;7.616;2024-02-21T14:32:47;97670;;;8.1;66.8
27358;BME280;14831;50.474;7.616;2024-02-21T14:37:47;97640;;;8.1;67.7
27358;BME280;14831;50.474;7.616;2024-02-21T14:42:47;97630;;;8.1;68.0
27358;BME280;14831;50.474;7.616;2024-02-21T14:47:47;97630;;;8.0;68.1
27358;BME280;14831;50.474;7.616;2024-02-21T14:52:47;97620;;;8.0;68.7
27358;BME280;14831;50.474;7.616;2024-02-21T14:57:47;97600;;;8.0;68.8
27358;BME280;14831;50.474;7.616;2024-02-21T15:02:47;97590;;;7.9;68.6
27358;BME280;14831;50.474;7.616;2024-02-21T15:07:47;97590;;;7.9;68.7
27358;BME280;14831;50.474;7.616;2024-02-21T15:12:47;97590;;;7.9;68.5
27358;BME280;14831;50.474;7.616;2024-02-21T15:17:47;97590;;;7.9;68.5
27358;BME280;14831;50.474;7.616;2024-02-21T15:22:47;97580;;;7.9;68.9
27358;BME280;14831;50.474;7.616;2024-02-21T15:27:47;97580;;;7.9;69.1
27358;BME280;14831;50.474;7.616;2024-02-21T15:32:47;97560;;;7.9;69.4
27358;BME280;14831;50.474;7.616;2024-02-21T15:37:47;97550;;;7.9;69.4
27358;BME280;14831;50.474;7.616;2024-02-21T15:42:47;97540;;;7.9;69.0
27358;BME280;14831;50.474;7.616;2024-02-21T15:47:47;97530;;;7.8;67.9
27358;BME280;14831;50.474;7.616;2024-02-21T15:52:47;97530;;;7.8;69.3
27358;BME280;14831;50.474;7.616;2024-02-21T15:57:47;97510;;;7.8;68.2
27358;BME280;14831;50.474;7.616;2024-02-21T16:02:47;97520;;;7.8;68.5
27358;BME280;14831;50.474;7.616;2024-02-21T16:07:47;97500;;;7.8;67.7
27358;BME280;14831;50.474;7.616;2024-02-21T16:12:48;97500;;;7.7;68.1
27358;BME280;14831;50.474;7.616;2024-02-21T16:17:47;97490;;;7.7;68.1
27358;BME280;14831;50.474;7.616;2024-02-21T16:22:47;97470;;;7.6;69.0
27358;BME280;14831;50.474;7.616;2024-02-21T16:27:47;97470;;;7.6;69.3
27358;BME280;14831;50.474;7.616;2024-02-21T16:32:47;97450;;;7.5;69.0
27358;BME280;14831;50.474;7.616;2024-02-21T16:37:47;97450;;;7.5;68.8
27358;BME280;14831;50.474;7.616;2024-02-21T16:42:47;97440;;;7.4;69.7
27358;BME280;14831;50.474;7.616;2024-02-21T16:47:47;97420;;;7.4;69.7
27358;BME280;14831;50.474;7.616;2024-02-21T16:52:47;97420;;;7.3;70.2
27358;BME280;14831;50.474;7.616;2024-02-21T16:57:47;97410;;;7.3;69.9
27358;BME280;14831;50.474;7.616;2024-02-21T17:02:47;97410;;;7.3;69.7
27358;BME280;14831;50.474;7.616;2024-02-21T17:07:47;97400;;;7.2;69.6
27358;BME280;14831;50.474;7.616;2024-02-21T17:12:47;97410;;;7.2;69.2
27358;BME280;14831;50.474;7.616;2024-02-21T17:17:48;97390;;;7.2;68.4
27358;BME280;14831;50.474;7.616;2024-02-21T17:22:47;97400;;;7.2;68.5
27358;BME280;14831;50.474;7.616;2024-02-21T17:27:47;97400;;;7.1;67.8
27358;BME280;14831;50.474;7.616;2024-02-21T17:32:47;97380;;;7.1;68.1
27358;BME280;14831;50.474;7.616;2024-02-21T17:37:47;97380;;;7.1;67.9
27358;BME280;14831;50.474;7.616;2024-02-21T17:42:47;97370;;;7.1;67.8
27358;BME280;14831;50.474;7.616;2024-02-21T17:47:47;97370;;;7.0;68.1
27358;BME280;14831;50.474;7.616;2024-02-21T17:52:47;97360;;;7.0;68.4
27358;BME280;14831;50.474;7.616;2024-02-21T17:57:47;97350;;;7.0;68.0
27358;BME280;14831;50.474;7.616;2024-02-21T18:02:47;97340;;;7.0;68.4
27358;BME280;14831;50.474;7.616;2024-02-21T18:07:47;97340;;;7.0;69.0
27358;BME280;14831;50.474;7.616;2024-02-21T18:12:47;97320;;;7.0;69.5
27358;BME280;14831;50.474;7.616;2024-02-21T18:17:47;97310;;;7.0;69.3
27358;BME280;14831;50.474;7.616;2024-02-21T18:22:47;97290;;;7.0;69.3
27358;BME280;14831;50.474;7.616;2024-02-21T18:27:47;97270;;;7.0;69.4
27358;BME280;14831;50.474;7.616;2024-02-21T18:32:47;97270;;;7.1;69.1
27358;BME280;14831;50.474;7.616;2024-02-21T18:37:47;97270;;;7.1;69.3
27358;BME280;14831;50.474;7.616;2024-02-21T18:42:47;97240;;;7.1;69.6
27358;BME280;14831;50.474;7.616;2024-02-21T18:47:47;97230;;;7.1;69.2
27358;BME280;14831;50.474;7.616;2024-02-21T18:52:47;97220;;;7.1;69.2
27358;BME280;14831;50.474;7.616;2024-02-21T18:57:47;97200;;;7.1;69.1
27358;BME280;14831;50.474;7.616;2024-02-21T19:02:47;97190;;;7.2;69.2
27358;BME280;14831;50.474;7.616;2024-02-21T19:07:47;97170;;;7.2;69.4
27358;BME280;14831;50.474;7.616;2024-02-21T19:12:47;97170;;;7.2;69.8
27358;BME280;14831;50.474;7.616;2024-02-21T19:17:47;97150;;;7.2;69.9
27358;BME280;14831;50.474;7.616;2024-02-21T19:22:47;97150;;;7.1;70.3
27358;BME280;14831;50.474;7.616;2024-02-21T19:27:47;97150;;;7.0;72.4
27358;BME280;14831;50.474;7.616;2024-02-21T19:32:47;97150;;;6.9;73.6
27358;BME280;14831;50.474;7.616;2024-02-21T19:37:47;97140;;;6.9;74.1
27358;BME280;14831;50.474;7.616;2024-02-21T19:42:47;97120;;;6.8;75.5
27358;BME280;14831;50.474;7.616;2024-02-21T19:47:47;97120;;;6.7;76.6
27358;BME280;14831;50.474;7.616;2024-02-21T19:52:47;97120;;;6.6;78.1
27358;BME280;14831;50.474;7.616;2024-02-21T19:57:47;97110;;;6.5;79.3
27358;BME280;14831;50.474;7.616;2024-02-21T20:02:47;97110;;;6.4;81.1
27358;BME280;14831;50.474;7.616;2024-02-21T20:07:47;97100;;;6.4;82.6
27358;BME280;14831;50.474;7.616;2024-02-21T20:12:47;97090;;;6.2;85.2
27358;BME280;14831;50.474;7.616;2024-02-21T20:17:47;97080;;;6.1;86.9
27358;BME280;14831;50.474;7.616;2024-02-21T20:22:47;97060;;;6.1;87.9
27358;BME280;14831;50.474;7.616;2024-02-21T20:27:47;97060;;;6.0;89.4
27358;BME280;14831;50.474;7.616;2024-02-21T20:32:47;97050;;;5.9;90.7
27358;BME280;14831;50.474;7.616;2024-02-21T20:37:48;97040;;;5.9;92.7
27358;BME280;14831;50.474;7.616;2024-02-21T20:42:47;97040;;;5.8;93.7
27358;BME280;14831;50.474;7.616;2024-02-21T20:47:47;97020;;;5.8;94.5
27358;BME280;14831;50.474;7.616;2024-02-21T20:52:47;97030;;;5.7;96.1
27358;BME280;14831;50.474;7.616;2024-02-21T20:57:47;97010;;;5.7;97.0
27358;BME280;14831;50.474;7.616;2024-02-21T21:02:47;97010;;;5.7;98.0
27358;BME280;14831;50.474;7.616;2024-02-21T21:07:47;97010;;;5.7;98.7
27358;BME280;14831;50.474;7.616;2024-02-21T21:12:47;97010;;;5.7;98.8
27358;BME280;14831;50.474;7.616;2024-02-21T21:17:47;97000;;;5.6;99.8
27358;BME280;14831;50.474;7.616;2024-02-21T21:22:47;96990;;;5.6;100.0
27358;BME280;14831;50.474;7.616;2024-02-21T21:27:47;96980;;;5.6;100.0
27358;BME280;14831;50.474;7.616;2024-02-21T21:32:47;96980;;;5.5;100.0
27358;BME280;14831;50.474;7.616;2024-02-21T21:37:48;96970;;;5.4;100.0
27358;BME280;14831;50.474;7.616;2024-02-21T21:42:47;96960;;;5.4;100.0
27358;BME280;14831;50.474;7.616;2024-02-21T21:47:47;96950;;;5.4;100.0
27358;BME280;14831;50.474;7.616;2024-02-21T21:52:47;96950;;;5.4;100.0
27358;BME280;14831;50.474;7.616;2024-02-21T21:57:47;96940;;;5.4;100.0
27358;BME280;14831;50.474;7.616;2024-02-21T22:02:47;96930;;;5.4;100.0
27358;BME280;14831;50.474;7.616;2024-02-21T22:07:47;96920;;;5.4;100.0
27358;BME280;14831;50.474;7.616;2024-02-21T22:12:47;96910;;;5.4;100.0
27358;BME280;14831;50.474;7.616;2024-02-21T22:17:47;96910;;;5.4;100.0
27358;BME280;14831;50.474;7.616;2024-02-21T22:22:47;96900;;;5.4;100.0
27358;BME280;14831;50.474;7.616;2024-02-21T22:27:47;96880;;;5.4;100.0
27358;BME280;14831;50.474;7.616;2024-02-21T22:32:47;96880;;;5.4;100.0
27358;BME280;14831;50.474;7.616;2024-02-21T22:37:47;96880;;;5.4;100.0
27358;BME280;14831;50.474;7.616;2024-02-21T22:42:47;96860;;;5.4;100.0
27358;BME280;14831;50.474;7.616;2024-02-21T22:47:47;96860;;;5.4;100.0
27358;BME280;14831;50.474;7.616;2024-02-21T22:52:47;96850;;;5.4;100.0
27358;BME280;14831;50.474;7.616;2024-02-21T22:57:47;96840;;;5.5;100.0
27358;BME280;14831;50.474;7.616;2024-02-21T23:02:47;96830;;;5.5;100.0
27358;BME280;14831;50.474;7.616;2024-02-21T23:07:47;96830;;;5.5;100.0
27358;BME280;14831;50.474;7.616;2024-02-21T23:12:47;96810;;;5.5;100.0
27358;BME280;14831;50.474;7.616;2024-02-21T23:17:47;96800;;;5.5;100.0
27358;BME280;14831;50.474;7.616;2024-02-21T23:22:47;96790;;;5.5;100.0
27358;BME280;14831;50.474;7.616;2024-02-21T23:27:47;96770;;;5.6;100.0
27358;BME280;14831;50.474;7.616;2024-02-21T23:32:47;96770;;;5.6;100.0
27358;BME280;14831;50.474;7.616;2024-02-21T23:37:47;96760;;;5.6;100.0
27358;BME280;14831;50.474;7.616;2024-02-21T23:42:47;96740;;;5.6;100.0
27358;BME280;14831;50.474;7.616;2024-02-21T23:47:47;96730;;;5.7;100.0
27358;BME280;14831;50.474;7.616;2024-02-21T23:52:47;96720;;;5.7;100.0
27358;BME280;14831;50.474;7.616;2024-02-21T23:57:47;96710;;;5.7;100.0
